Terminal Aerodrome Forecast
Issued by NWS

Current Version | Previous Version | Text Only | Print | Product List | Glossary On
Versions: 1 2 3 4 5 6 7 8 9 10 11 12 13 14 15
000
FTUS42 KTBW 282300
TAFLAL
TAF
KLAL 282332Z 2900/2924 10005KT P6SM SCT060
     FM291800 17005KT P6SM VCTS SCT040CB
      AMD NOT SKED 2903/2912=

USA.gov is the U.S. government's official web portal to all federal, state and local government web resources and services.